Terminal Aerodrome Forecast
Issued by NWS

Home | Current Version | Previous Version | Text Only | Print | Product List | Glossary Off
Versions: 1 2 3 4 5 6 7 8 9 10 11 12 13 14 15 16 17 18 19 20 21 22 23 24 25 26 27 28

000
FTUS43 KBIS 182333
TAFDIK
TAF
KDIK 182333Z 1900/1924 02009KT P6SM SCT040
     FM190200 05005KT P6SM SCT050
     FM190700 VRB04KT 6SM BR FEW020
     FM191000 VRB04KT 1SM BR SCT008
     FM191400 15005KT P6SM SCT020
     FM192100 12011KT P6SM SCT250=

USA.gov is the U.S. government's official web portal to all federal, state and local government web resources and services.